sensor_id;sensor_type;location;lat;lon;timestamp;P1;durP1;ratioP1;P2;durP2;ratioP2
38717;SDS011;24468;52.128;9.278;2022-12-11T00:00:07;20.48;;;13.73;;
38717;SDS011;24468;52.128;9.278;2022-12-11T00:02:34;19.35;;;13.15;;
38717;SDS011;24468;52.128;9.278;2022-12-11T00:04:59;19.27;;;13.68;;
38717;SDS011;24468;52.128;9.278;2022-12-11T00:07:25;20.77;;;13.38;;
38717;SDS011;24468;52.128;9.278;2022-12-11T00:09:50;18.02;;;12.30;;
38717;SDS011;24468;52.128;9.278;2022-12-11T00:12:16;20.08;;;14.10;;
38717;SDS011;24468;52.128;9.278;2022-12-11T00:14:42;19.27;;;12.95;;
38717;SDS011;24468;52.128;9.278;2022-12-11T00:17:07;17.30;;;12.75;;
38717;SDS011;24468;52.128;9.278;2022-12-11T00:19:33;20.23;;;13.70;;
38717;SDS011;24468;52.128;9.278;2022-12-11T00:21:58;18.33;;;12.85;;
38717;SDS011;24468;52.128;9.278;2022-12-11T00:24:24;18.80;;;13.75;;
38717;SDS011;24468;52.128;9.278;2022-12-11T00:26:49;17.13;;;12.50;;
38717;SDS011;24468;52.128;9.278;2022-12-11T00:29:15;22.20;;;15.45;;
38717;SDS011;24468;52.128;9.278;2022-12-11T00:31:40;20.15;;;13.23;;
38717;SDS011;24468;52.128;9.278;2022-12-11T00:34:07;22.00;;;13.43;;
38717;SDS011;24468;52.128;9.278;2022-12-11T00:36:32;21.48;;;14.30;;
38717;SDS011;24468;52.128;9.278;2022-12-11T00:38:58;21.35;;;13.40;;
38717;SDS011;24468;52.128;9.278;2022-12-11T00:41:26;19.05;;;13.07;;
38717;SDS011;24468;52.128;9.278;2022-12-11T00:43:52;17.67;;;13.15;;
38717;SDS011;24468;52.128;9.278;2022-12-11T00:46:17;20.80;;;14.38;;
38717;SDS011;24468;52.128;9.278;2022-12-11T00:48:43;20.20;;;13.23;;
38717;SDS011;24468;52.128;9.278;2022-12-11T00:51:10;18.92;;;12.73;;
38717;SDS011;24468;52.128;9.278;2022-12-11T00:53:36;20.20;;;13.20;;
38717;SDS011;24468;52.128;9.278;2022-12-11T00:56:13;16.45;;;11.90;;
38717;SDS011;24468;52.128;9.278;2022-12-11T00:58:46;21.30;;;13.57;;
38717;SDS011;24468;52.128;9.278;2022-12-11T01:01:14;18.95;;;12.85;;
38717;SDS011;24468;52.128;9.278;2022-12-11T01:03:43;19.50;;;13.38;;
38717;SDS011;24468;52.128;9.278;2022-12-11T01:06:12;19.20;;;14.05;;
38717;SDS011;24468;52.128;9.278;2022-12-11T01:08:43;21.23;;;13.35;;
38717;SDS011;24468;52.128;9.278;2022-12-11T01:11:10;21.05;;;14.95;;
38717;SDS011;24468;52.128;9.278;2022-12-11T01:13:39;18.42;;;12.77;;
38717;SDS011;24468;52.128;9.278;2022-12-11T01:16:13;17.30;;;12.07;;
38717;SDS011;24468;52.128;9.278;2022-12-11T01:18:39;24.88;;;16.52;;
38717;SDS011;24468;52.128;9.278;2022-12-11T01:21:09;18.75;;;12.70;;
38717;SDS011;24468;52.128;9.278;2022-12-11T01:23:38;23.88;;;14.63;;
38717;SDS011;24468;52.128;9.278;2022-12-11T01:26:07;22.17;;;13.77;;
38717;SDS011;24468;52.128;9.278;2022-12-11T01:28:39;19.52;;;13.85;;
38717;SDS011;24468;52.128;9.278;2022-12-11T01:31:08;19.02;;;13.20;;
38717;SDS011;24468;52.128;9.278;2022-12-11T01:33:40;20.73;;;13.40;;
38717;SDS011;24468;52.128;9.278;2022-12-11T01:36:18;17.98;;;13.65;;
38717;SDS011;24468;52.128;9.278;2022-12-11T01:38:46;19.02;;;12.52;;
38717;SDS011;24468;52.128;9.278;2022-12-11T01:41:13;16.70;;;11.95;;
38717;SDS011;24468;52.128;9.278;2022-12-11T01:43:59;18.42;;;12.85;;
38717;SDS011;24468;52.128;9.278;2022-12-11T01:46:32;20.20;;;13.27;;
38717;SDS011;24468;52.128;9.278;2022-12-11T01:49:00;32.85;;;18.13;;
38717;SDS011;24468;52.128;9.278;2022-12-11T01:51:30;25.73;;;14.57;;
38717;SDS011;24468;52.128;9.278;2022-12-11T01:54:00;21.02;;;13.57;;
38717;SDS011;24468;52.128;9.278;2022-12-11T01:56:31;15.85;;;12.32;;
38717;SDS011;24468;52.128;9.278;2022-12-11T01:59:00;18.75;;;12.65;;
38717;SDS011;24468;52.128;9.278;2022-12-11T02:01:42;18.93;;;12.10;;
38717;SDS011;24468;52.128;9.278;2022-12-11T02:04:11;18.67;;;12.40;;
38717;SDS011;24468;52.128;9.278;2022-12-11T02:06:39;19.13;;;13.25;;
38717;SDS011;24468;52.128;9.278;2022-12-11T02:09:08;18.10;;;12.43;;
38717;SDS011;24468;52.128;9.278;2022-12-11T02:12:00;17.50;;;12.35;;
38717;SDS011;24468;52.128;9.278;2022-12-11T02:18:02;19.77;;;13.00;;
38717;SDS011;24468;52.128;9.278;2022-12-11T02:29:30;19.75;;;13.35;;
38717;SDS011;24468;52.128;9.278;2022-12-11T02:32:15;16.50;;;11.85;;
38717;SDS011;24468;52.128;9.278;2022-12-11T02:38:07;18.30;;;12.50;;
38717;SDS011;24468;52.128;9.278;2022-12-11T02:40:39;20.88;;;12.82;;
38717;SDS011;24468;52.128;9.278;2022-12-11T02:43:07;18.08;;;13.43;;
38717;SDS011;24468;52.128;9.278;2022-12-11T02:45:35;17.00;;;13.32;;
38717;SDS011;24468;52.128;9.278;2022-12-11T02:48:03;18.83;;;12.40;;
38717;SDS011;24468;52.128;9.278;2022-12-11T02:50:31;18.42;;;13.32;;
38717;SDS011;24468;52.128;9.278;2022-12-11T02:52:59;19.27;;;13.13;;
38717;SDS011;24468;52.128;9.278;2022-12-11T02:55:27;17.95;;;13.50;;
38717;SDS011;24468;52.128;9.278;2022-12-11T02:58:13;18.42;;;12.85;;
38717;SDS011;24468;52.128;9.278;2022-12-11T03:00:50;17.00;;;12.57;;
38717;SDS011;24468;52.128;9.278;2022-12-11T03:03:16;15.88;;;12.38;;
38717;SDS011;24468;52.128;9.278;2022-12-11T03:05:42;20.92;;;13.35;;
38717;SDS011;24468;52.128;9.278;2022-12-11T03:08:10;18.45;;;12.45;;
38717;SDS011;24468;52.128;9.278;2022-12-11T03:10:36;18.42;;;12.13;;
38717;SDS011;24468;52.128;9.278;2022-12-11T03:13:02;20.45;;;13.52;;
38717;SDS011;24468;52.128;9.278;2022-12-11T03:15:40;15.27;;;11.35;;
38717;SDS011;24468;52.128;9.278;2022-12-11T03:18:56;17.05;;;11.32;;
38717;SDS011;24468;52.128;9.278;2022-12-11T03:21:44;20.90;;;13.30;;
38717;SDS011;24468;52.128;9.278;2022-12-11T03:24:24;17.38;;;12.48;;
38717;SDS011;24468;52.128;9.278;2022-12-11T03:27:54;18.88;;;12.32;;
38717;SDS011;24468;52.128;9.278;2022-12-11T03:30:20;19.00;;;13.45;;
38717;SDS011;24468;52.128;9.278;2022-12-11T03:32:50;18.42;;;13.20;;
38717;SDS011;24468;52.128;9.278;2022-12-11T03:35:25;16.60;;;11.57;;
38717;SDS011;24468;52.128;9.278;2022-12-11T03:38:04;19.70;;;13.48;;
38717;SDS011;24468;52.128;9.278;2022-12-11T03:40:34;18.23;;;12.90;;
38717;SDS011;24468;52.128;9.278;2022-12-11T03:43:03;17.98;;;13.02;;
38717;SDS011;24468;52.128;9.278;2022-12-11T03:45:31;17.45;;;12.15;;
38717;SDS011;24468;52.128;9.278;2022-12-11T03:47:58;19.08;;;13.38;;
38717;SDS011;24468;52.128;9.278;2022-12-11T03:50:26;19.25;;;13.82;;
38717;SDS011;24468;52.128;9.278;2022-12-11T03:52:55;18.27;;;12.40;;
38717;SDS011;24468;52.128;9.278;2022-12-11T03:55:22;19.25;;;13.13;;
38717;SDS011;24468;52.128;9.278;2022-12-11T03:57:51;17.30;;;12.27;;
38717;SDS011;24468;52.128;9.278;2022-12-11T04:00:17;19.77;;;13.75;;
38717;SDS011;24468;52.128;9.278;2022-12-11T04:02:45;18.75;;;12.43;;
38717;SDS011;24468;52.128;9.278;2022-12-11T04:05:33;17.67;;;12.52;;
38717;SDS011;24468;52.128;9.278;2022-12-11T04:07:59;15.82;;;12.35;;
38717;SDS011;24468;52.128;9.278;2022-12-11T04:10:25;18.33;;;13.48;;
38717;SDS011;24468;52.128;9.278;2022-12-11T04:12:51;18.08;;;12.73;;
38717;SDS011;24468;52.128;9.278;2022-12-11T04:15:17;18.42;;;13.15;;
38717;SDS011;24468;52.128;9.278;2022-12-11T04:17:42;20.40;;;13.70;;
38717;SDS011;24468;52.128;9.278;2022-12-11T04:20:26;19.13;;;13.55;;
38717;SDS011;24468;52.128;9.278;2022-12-11T04:23:12;18.48;;;13.68;;
38717;SDS011;24468;52.128;9.278;2022-12-11T04:26:03;17.58;;;12.90;;
38717;SDS011;24468;52.128;9.278;2022-12-11T04:28:43;22.38;;;13.98;;
38717;SDS011;24468;52.128;9.278;2022-12-11T04:31:12;16.65;;;12.55;;
38717;SDS011;24468;52.128;9.278;2022-12-11T04:33:42;20.85;;;14.55;;
38717;SDS011;24468;52.128;9.278;2022-12-11T04:36:08;17.67;;;13.50;;
38717;SDS011;24468;52.128;9.278;2022-12-11T04:38:34;18.33;;;13.43;;
38717;SDS011;24468;52.128;9.278;2022-12-11T04:41:01;22.48;;;14.70;;
38717;SDS011;24468;52.128;9.278;2022-12-11T04:43:33;19.13;;;13.23;;
38717;SDS011;24468;52.128;9.278;2022-12-11T04:46:09;19.73;;;13.88;;
38717;SDS011;24468;52.128;9.278;2022-12-11T04:48:41;20.00;;;14.30;;
38717;SDS011;24468;52.128;9.278;2022-12-11T04:51:07;18.58;;;13.40;;
38717;SDS011;24468;52.128;9.278;2022-12-11T04:53:33;17.55;;;13.82;;
38717;SDS011;24468;52.128;9.278;2022-12-11T04:56:00;20.00;;;13.88;;
38717;SDS011;24468;52.128;9.278;2022-12-11T04:58:28;18.15;;;14.20;;
38717;SDS011;24468;52.128;9.278;2022-12-11T05:00:54;19.10;;;13.27;;
38717;SDS011;24468;52.128;9.278;2022-12-11T05:03:19;20.73;;;14.02;;
38717;SDS011;24468;52.128;9.278;2022-12-11T05:05:52;19.05;;;13.88;;
38717;SDS011;24468;52.128;9.278;2022-12-11T05:08:18;21.20;;;14.63;;
38717;SDS011;24468;52.128;9.278;2022-12-11T05:10:54;17.63;;;12.95;;
38717;SDS011;24468;52.128;9.278;2022-12-11T05:13:25;22.33;;;13.73;;
38717;SDS011;24468;52.128;9.278;2022-12-11T05:15:52;21.42;;;15.30;;
38717;SDS011;24468;52.128;9.278;2022-12-11T05:18:18;20.90;;;13.80;;
38717;SDS011;24468;52.128;9.278;2022-12-11T05:20:43;20.17;;;13.82;;
38717;SDS011;24468;52.128;9.278;2022-12-11T05:23:09;19.20;;;14.00;;
38717;SDS011;24468;52.128;9.278;2022-12-11T05:25:35;20.90;;;13.90;;
38717;SDS011;24468;52.128;9.278;2022-12-11T05:28:00;20.75;;;13.77;;
38717;SDS011;24468;52.128;9.278;2022-12-11T05:30:26;16.35;;;12.32;;
38717;SDS011;24468;52.128;9.278;2022-12-11T05:32:51;21.50;;;14.38;;
38717;SDS011;24468;52.128;9.278;2022-12-11T05:35:17;21.80;;;16.10;;
38717;SDS011;24468;52.128;9.278;2022-12-11T05:37:42;21.83;;;13.90;;
38717;SDS011;24468;52.128;9.278;2022-12-11T05:40:08;18.23;;;13.88;;
38717;SDS011;24468;52.128;9.278;2022-12-11T05:42:36;18.73;;;13.88;;
38717;SDS011;24468;52.128;9.278;2022-12-11T05:45:02;23.02;;;14.75;;
38717;SDS011;24468;52.128;9.278;2022-12-11T05:47:29;19.13;;;14.57;;
38717;SDS011;24468;52.128;9.278;2022-12-11T05:49:55;21.70;;;14.43;;
38717;SDS011;24468;52.128;9.278;2022-12-11T05:52:21;18.77;;;14.18;;
38717;SDS011;24468;52.128;9.278;2022-12-11T05:54:47;22.85;;;15.13;;
38717;SDS011;24468;52.128;9.278;2022-12-11T05:57:15;22.65;;;13.75;;
38717;SDS011;24468;52.128;9.278;2022-12-11T05:59:41;18.00;;;13.07;;
38717;SDS011;24468;52.128;9.278;2022-12-11T06:02:06;21.17;;;14.50;;
38717;SDS011;24468;52.128;9.278;2022-12-11T06:04:32;19.00;;;14.50;;
38717;SDS011;24468;52.128;9.278;2022-12-11T06:06:58;19.23;;;13.93;;
38717;SDS011;24468;52.128;9.278;2022-12-11T06:09:23;19.85;;;13.38;;
38717;SDS011;24468;52.128;9.278;2022-12-11T06:11:49;19.90;;;13.90;;
38717;SDS011;24468;52.128;9.278;2022-12-11T06:14:14;19.98;;;13.25;;
38717;SDS011;24468;52.128;9.278;2022-12-11T06:16:40;20.00;;;13.98;;
38717;SDS011;24468;52.128;9.278;2022-12-11T06:19:05;22.98;;;16.10;;
38717;SDS011;24468;52.128;9.278;2022-12-11T06:21:31;23.50;;;17.33;;
38717;SDS011;24468;52.128;9.278;2022-12-11T06:24:00;21.13;;;14.57;;
38717;SDS011;24468;52.128;9.278;2022-12-11T06:26:27;21.23;;;15.32;;
38717;SDS011;24468;52.128;9.278;2022-12-11T06:28:54;21.65;;;15.07;;
38717;SDS011;24468;52.128;9.278;2022-12-11T06:31:19;20.13;;;15.35;;
38717;SDS011;24468;52.128;9.278;2022-12-11T06:33:45;20.63;;;14.73;;
38717;SDS011;24468;52.128;9.278;2022-12-11T06:36:12;21.80;;;14.07;;
38717;SDS011;24468;52.128;9.278;2022-12-11T06:38:41;18.88;;;14.15;;
38717;SDS011;24468;52.128;9.278;2022-12-11T06:41:07;19.83;;;14.70;;
38717;SDS011;24468;52.128;9.278;2022-12-11T06:43:34;20.00;;;14.82;;
38717;SDS011;24468;52.128;9.278;2022-12-11T06:46:02;21.17;;;15.73;;
38717;SDS011;24468;52.128;9.278;2022-12-11T06:51:03;19.90;;;14.05;;
38717;SDS011;24468;52.128;9.278;2022-12-11T06:53:34;22.92;;;14.73;;
38717;SDS011;24468;52.128;9.278;2022-12-11T06:56:03;19.63;;;14.30;;
38717;SDS011;24468;52.128;9.278;2022-12-11T06:58:32;23.52;;;15.55;;
38717;SDS011;24468;52.128;9.278;2022-12-11T07:00:59;20.88;;;15.10;;
38717;SDS011;24468;52.128;9.278;2022-12-11T07:03:26;20.40;;;15.23;;
38717;SDS011;24468;52.128;9.278;2022-12-11T07:05:52;23.13;;;16.25;;
38717;SDS011;24468;52.128;9.278;2022-12-11T07:08:17;20.40;;;15.32;;
38717;SDS011;24468;52.128;9.278;2022-12-11T07:10:43;21.58;;;15.48;;
38717;SDS011;24468;52.128;9.278;2022-12-11T07:13:08;22.52;;;16.15;;
38717;SDS011;24468;52.128;9.278;2022-12-11T07:15:34;24.67;;;16.73;;
38717;SDS011;24468;52.128;9.278;2022-12-11T07:18:00;23.13;;;16.70;;
38717;SDS011;24468;52.128;9.278;2022-12-11T07:20:26;23.73;;;16.35;;
38717;SDS011;24468;52.128;9.278;2022-12-11T07:22:52;23.33;;;16.65;;
38717;SDS011;24468;52.128;9.278;2022-12-11T07:25:18;24.73;;;17.15;;
38717;SDS011;24468;52.128;9.278;2022-12-11T07:27:43;21.58;;;15.80;;
38717;SDS011;24468;52.128;9.278;2022-12-11T07:30:09;21.98;;;16.13;;
38717;SDS011;24468;52.128;9.278;2022-12-11T07:32:36;22.48;;;15.98;;
38717;SDS011;24468;52.128;9.278;2022-12-11T07:35:02;24.35;;;16.45;;
38717;SDS011;24468;52.128;9.278;2022-12-11T07:37:28;23.27;;;15.85;;
38717;SDS011;24468;52.128;9.278;2022-12-11T07:39:53;23.83;;;16.52;;
38717;SDS011;24468;52.128;9.278;2022-12-11T07:42:19;21.90;;;16.35;;
38717;SDS011;24468;52.128;9.278;2022-12-11T07:44:44;22.55;;;15.38;;
38717;SDS011;24468;52.128;9.278;2022-12-11T07:47:10;22.95;;;16.05;;
38717;SDS011;24468;52.128;9.278;2022-12-11T07:49:35;25.30;;;16.65;;
38717;SDS011;24468;52.128;9.278;2022-12-11T07:52:02;21.77;;;15.80;;
38717;SDS011;24468;52.128;9.278;2022-12-11T07:54:28;27.20;;;17.77;;
38717;SDS011;24468;52.128;9.278;2022-12-11T07:56:53;26.35;;;16.15;;
38717;SDS011;24468;52.128;9.278;2022-12-11T07:59:19;26.35;;;16.70;;
38717;SDS011;24468;52.128;9.278;2022-12-11T08:01:45;22.55;;;14.98;;
38717;SDS011;24468;52.128;9.278;2022-12-11T08:04:10;24.08;;;16.67;;
38717;SDS011;24468;52.128;9.278;2022-12-11T08:06:39;23.55;;;16.05;;
38717;SDS011;24468;52.128;9.278;2022-12-11T08:09:07;24.40;;;15.35;;
38717;SDS011;24468;52.128;9.278;2022-12-11T08:11:35;21.83;;;15.93;;
38717;SDS011;24468;52.128;9.278;2022-12-11T08:14:01;22.23;;;14.70;;
38717;SDS011;24468;52.128;9.278;2022-12-11T08:16:27;19.70;;;14.57;;
38717;SDS011;24468;52.128;9.278;2022-12-11T08:18:53;22.52;;;16.40;;
38717;SDS011;24468;52.128;9.278;2022-12-11T08:21:20;21.88;;;16.80;;
38717;SDS011;24468;52.128;9.278;2022-12-11T08:23:48;19.20;;;14.70;;
38717;SDS011;24468;52.128;9.278;2022-12-11T08:26:16;19.83;;;13.85;;
38717;SDS011;24468;52.128;9.278;2022-12-11T08:28:48;24.85;;;16.65;;
38717;SDS011;24468;52.128;9.278;2022-12-11T08:31:14;26.38;;;16.00;;
38717;SDS011;24468;52.128;9.278;2022-12-11T08:33:41;23.50;;;15.75;;
38717;SDS011;24468;52.128;9.278;2022-12-11T08:36:08;24.65;;;16.02;;
38717;SDS011;24468;52.128;9.278;2022-12-11T08:38:42;24.27;;;16.40;;
38717;SDS011;24468;52.128;9.278;2022-12-11T08:41:09;23.17;;;15.98;;
38717;SDS011;24468;52.128;9.278;2022-12-11T08:43:38;22.50;;;16.33;;
38717;SDS011;24468;52.128;9.278;2022-12-11T08:46:04;20.52;;;14.85;;
38717;SDS011;24468;52.128;9.278;2022-12-11T08:48:31;24.75;;;15.77;;
38717;SDS011;24468;52.128;9.278;2022-12-11T08:50:58;22.45;;;15.95;;
38717;SDS011;24468;52.128;9.278;2022-12-11T08:53:26;24.77;;;16.75;;
38717;SDS011;24468;52.128;9.278;2022-12-11T08:55:53;24.67;;;17.10;;
38717;SDS011;24468;52.128;9.278;2022-12-11T08:58:25;22.58;;;15.65;;
38717;SDS011;24468;52.128;9.278;2022-12-11T09:00:50;24.48;;;15.98;;
38717;SDS011;24468;52.128;9.278;2022-12-11T09:03:16;24.17;;;16.30;;
38717;SDS011;24468;52.128;9.278;2022-12-11T09:05:41;24.75;;;16.55;;
38717;SDS011;24468;52.128;9.278;2022-12-11T09:08:07;25.98;;;16.83;;
38717;SDS011;24468;52.128;9.278;2022-12-11T09:10:32;24.55;;;17.48;;
38717;SDS011;24468;52.128;9.278;2022-12-11T09:12:58;21.17;;;16.10;;
38717;SDS011;24468;52.128;9.278;2022-12-11T09:15:23;24.25;;;16.05;;
38717;SDS011;24468;52.128;9.278;2022-12-11T09:17:49;25.58;;;17.63;;
38717;SDS011;24468;52.128;9.278;2022-12-11T09:20:14;28.30;;;19.98;;
38717;SDS011;24468;52.128;9.278;2022-12-11T09:22:40;31.27;;;19.27;;
38717;SDS011;24468;52.128;9.278;2022-12-11T09:25:06;22.10;;;17.95;;
38717;SDS011;24468;52.128;9.278;2022-12-11T09:27:33;24.35;;;17.08;;
38717;SDS011;24468;52.128;9.278;2022-12-11T09:29:59;26.02;;;18.10;;
38717;SDS011;24468;52.128;9.278;2022-12-11T09:32:24;24.50;;;17.30;;
38717;SDS011;24468;52.128;9.278;2022-12-11T09:34:50;29.50;;;18.02;;
38717;SDS011;24468;52.128;9.278;2022-12-11T09:37:16;25.55;;;18.30;;
38717;SDS011;24468;52.128;9.278;2022-12-11T09:39:41;27.95;;;18.85;;
38717;SDS011;24468;52.128;9.278;2022-12-11T09:44:47;28.48;;;19.80;;
38717;SDS011;24468;52.128;9.278;2022-12-11T09:47:26;27.20;;;18.65;;
38717;SDS011;24468;52.128;9.278;2022-12-11T09:55:05;28.98;;;19.10;;
38717;SDS011;24468;52.128;9.278;2022-12-11T09:57:42;25.85;;;17.80;;
38717;SDS011;24468;52.128;9.278;2022-12-11T10:00:19;24.10;;;17.30;;
38717;SDS011;24468;52.128;9.278;2022-12-11T10:06:10;31.42;;;19.95;;
38717;SDS011;24468;52.128;9.278;2022-12-11T10:10:02;31.83;;;19.38;;
38717;SDS011;24468;52.128;9.278;2022-12-11T10:12:29;28.65;;;19.73;;
38717;SDS011;24468;52.128;9.278;2022-12-11T10:15:56;28.90;;;18.90;;
38717;SDS011;24468;52.128;9.278;2022-12-11T10:18:11;26.25;;;17.75;;
38717;SDS011;24468;52.128;9.278;2022-12-11T10:20:43;27.88;;;18.55;;
38717;SDS011;24468;52.128;9.278;2022-12-11T10:23:31;26.70;;;19.02;;
38717;SDS011;24468;52.128;9.278;2022-12-11T10:26:13;28.55;;;19.58;;
38717;SDS011;24468;52.128;9.278;2022-12-11T10:28:42;27.55;;;18.15;;
38717;SDS011;24468;52.128;9.278;2022-12-11T10:33:43;27.60;;;19.33;;
38717;SDS011;24468;52.128;9.278;2022-12-11T10:36:37;26.95;;;18.02;;
38717;SDS011;24468;52.128;9.278;2022-12-11T10:39:15;26.25;;;18.67;;
38717;SDS011;24468;52.128;9.278;2022-12-11T10:41:52;27.17;;;18.08;;
38717;SDS011;24468;52.128;9.278;2022-12-11T10:44:26;26.08;;;19.33;;
38717;SDS011;24468;52.128;9.278;2022-12-11T10:49:37;31.73;;;20.50;;
38717;SDS011;24468;52.128;9.278;2022-12-11T10:52:19;27.42;;;19.70;;
38717;SDS011;24468;52.128;9.278;2022-12-11T10:54:57;28.95;;;17.70;;
38717;SDS011;24468;52.128;9.278;2022-12-11T10:57:29;32.38;;;21.70;;
38717;SDS011;24468;52.128;9.278;2022-12-11T10:59:58;28.58;;;19.67;;
38717;SDS011;24468;52.128;9.278;2022-12-11T11:02:28;29.08;;;20.08;;
38717;SDS011;24468;52.128;9.278;2022-12-11T11:04:59;27.13;;;19.38;;
38717;SDS011;24468;52.128;9.278;2022-12-11T11:07:36;41.88;;;25.05;;
38717;SDS011;24468;52.128;9.278;2022-12-11T11:12:43;61.25;;;50.40;;
38717;SDS011;24468;52.128;9.278;2022-12-11T11:15:15;35.17;;;23.52;;
38717;SDS011;24468;52.128;9.278;2022-12-11T11:18:08;32.38;;;22.45;;
38717;SDS011;24468;52.128;9.278;2022-12-11T11:20:42;36.20;;;24.67;;
38717;SDS011;24468;52.128;9.278;2022-12-11T11:25:46;31.77;;;20.98;;
38717;SDS011;24468;52.128;9.278;2022-12-11T11:28:19;34.40;;;21.73;;
38717;SDS011;24468;52.128;9.278;2022-12-11T11:33:35;34.20;;;22.52;;
38717;SDS011;24468;52.128;9.278;2022-12-11T11:36:23;33.95;;;22.42;;
38717;SDS011;24468;52.128;9.278;2022-12-11T11:47:49;35.63;;;23.13;;
38717;SDS011;24468;52.128;9.278;2022-12-11T11:50:30;33.60;;;21.83;;
38717;SDS011;24468;52.128;9.278;2022-12-11T11:56:21;41.70;;;24.80;;
38717;SDS011;24468;52.128;9.278;2022-12-11T12:01:39;34.00;;;21.67;;
38717;SDS011;24468;52.128;9.278;2022-12-11T12:04:06;34.55;;;21.95;;
38717;SDS011;24468;52.128;9.278;2022-12-11T12:11:59;37.85;;;23.33;;
38717;SDS011;24468;52.128;9.278;2022-12-11T12:17:37;36.35;;;23.42;;
38717;SDS011;24468;52.128;9.278;2022-12-11T12:20:31;41.55;;;24.02;;
38717;SDS011;24468;52.128;9.278;2022-12-11T12:26:32;38.10;;;23.27;;
38717;SDS011;24468;52.128;9.278;2022-12-11T12:40:35;42.25;;;26.58;;
38717;SDS011;24468;52.128;9.278;2022-12-11T12:49:31;33.38;;;22.83;;
38717;SDS011;24468;52.128;9.278;2022-12-11T12:52:01;40.10;;;24.02;;
38717;SDS011;24468;52.128;9.278;2022-12-11T12:54:29;43.22;;;25.05;;
38717;SDS011;24468;52.128;9.278;2022-12-11T12:56:57;42.65;;;25.45;;
38717;SDS011;24468;52.128;9.278;2022-12-11T12:59:26;35.95;;;23.35;;
38717;SDS011;24468;52.128;9.278;2022-12-11T13:01:53;36.00;;;23.70;;
38717;SDS011;24468;52.128;9.278;2022-12-11T13:04:36;37.10;;;24.05;;
38717;SDS011;24468;52.128;9.278;2022-12-11T13:07:18;38.17;;;24.95;;
38717;SDS011;24468;52.128;9.278;2022-12-11T13:12:49;38.15;;;25.15;;
38717;SDS011;24468;52.128;9.278;2022-12-11T13:18:30;36.85;;;24.55;;
38717;SDS011;24468;52.128;9.278;2022-12-11T13:21:21;39.45;;;24.70;;
38717;SDS011;24468;52.128;9.278;2022-12-11T13:26:44;39.63;;;25.05;;
38717;SDS011;24468;52.128;9.278;2022-12-11T13:34:31;39.25;;;25.00;;
38717;SDS011;24468;52.128;9.278;2022-12-11T13:37:00;39.58;;;25.05;;
38717;SDS011;24468;52.128;9.278;2022-12-11T13:39:34;36.17;;;23.55;;
38717;SDS011;24468;52.128;9.278;2022-12-11T13:42:04;38.47;;;25.25;;
38717;SDS011;24468;52.128;9.278;2022-12-11T13:44:33;37.20;;;24.65;;
38717;SDS011;24468;52.128;9.278;2022-12-11T13:47:09;40.08;;;25.52;;
38717;SDS011;24468;52.128;9.278;2022-12-11T13:49:39;36.15;;;23.38;;
38717;SDS011;24468;52.128;9.278;2022-12-11T13:52:16;41.33;;;26.40;;
38717;SDS011;24468;52.128;9.278;2022-12-11T13:54:46;36.35;;;24.48;;
38717;SDS011;24468;52.128;9.278;2022-12-11T13:57:16;36.67;;;23.83;;
38717;SDS011;24468;52.128;9.278;2022-12-11T13:59:49;38.92;;;25.98;;
38717;SDS011;24468;52.128;9.278;2022-12-11T14:02:21;41.65;;;25.40;;
38717;SDS011;24468;52.128;9.278;2022-12-11T14:05:04;45.40;;;25.27;;
38717;SDS011;24468;52.128;9.278;2022-12-11T14:07:45;43.97;;;26.00;;
38717;SDS011;24468;52.128;9.278;2022-12-11T14:10:24;45.13;;;25.23;;
38717;SDS011;24468;52.128;9.278;2022-12-11T14:13:03;46.75;;;25.00;;
38717;SDS011;24468;52.128;9.278;2022-12-11T14:15:39;53.42;;;29.17;;
38717;SDS011;24468;52.128;9.278;2022-12-11T14:18:12;51.22;;;24.58;;
38717;SDS011;24468;52.128;9.278;2022-12-11T14:20:44;53.42;;;27.98;;
38717;SDS011;24468;52.128;9.278;2022-12-11T14:23:17;47.15;;;25.50;;
38717;SDS011;24468;52.128;9.278;2022-12-11T14:25:59;50.20;;;25.23;;
38717;SDS011;24468;52.128;9.278;2022-12-11T14:31:00;48.53;;;26.42;;
38717;SDS011;24468;52.128;9.278;2022-12-11T14:33:31;51.30;;;27.33;;
38717;SDS011;24468;52.128;9.278;2022-12-11T14:36:04;50.35;;;30.63;;
38717;SDS011;24468;52.128;9.278;2022-12-11T14:38:33;41.95;;;26.92;;
38717;SDS011;24468;52.128;9.278;2022-12-11T14:41:03;43.38;;;24.42;;
38717;SDS011;24468;52.128;9.278;2022-12-11T14:43:42;44.42;;;28.25;;
38717;SDS011;24468;52.128;9.278;2022-12-11T14:46:16;39.47;;;24.70;;
38717;SDS011;24468;52.128;9.278;2022-12-11T14:48:56;40.80;;;25.48;;
38717;SDS011;24468;52.128;9.278;2022-12-11T14:51:32;42.05;;;27.55;;
38717;SDS011;24468;52.128;9.278;2022-12-11T14:54:03;40.78;;;26.55;;
38717;SDS011;24468;52.128;9.278;2022-12-11T14:56:31;44.92;;;26.30;;
38717;SDS011;24468;52.128;9.278;2022-12-11T14:58:58;43.75;;;26.55;;
38717;SDS011;24468;52.128;9.278;2022-12-11T15:01:31;48.42;;;29.90;;
38717;SDS011;24468;52.128;9.278;2022-12-11T15:06:44;43.85;;;26.77;;
38717;SDS011;24468;52.128;9.278;2022-12-11T15:09:19;52.08;;;31.15;;
38717;SDS011;24468;52.128;9.278;2022-12-11T15:11:52;40.42;;;25.50;;
38717;SDS011;24468;52.128;9.278;2022-12-11T15:14:31;38.42;;;24.33;;
38717;SDS011;24468;52.128;9.278;2022-12-11T15:16:57;39.50;;;24.17;;
38717;SDS011;24468;52.128;9.278;2022-12-11T15:19:28;37.00;;;24.58;;
38717;SDS011;24468;52.128;9.278;2022-12-11T15:22:03;41.42;;;24.52;;
38717;SDS011;24468;52.128;9.278;2022-12-11T15:24:35;35.85;;;22.55;;
38717;SDS011;24468;52.128;9.278;2022-12-11T15:27:05;36.05;;;22.33;;
38717;SDS011;24468;52.128;9.278;2022-12-11T15:29:38;39.53;;;24.75;;
38717;SDS011;24468;52.128;9.278;2022-12-11T15:34:42;39.50;;;24.35;;
38717;SDS011;24468;52.128;9.278;2022-12-11T15:37:21;28.65;;;18.75;;
38717;SDS011;24468;52.128;9.278;2022-12-11T15:39:50;32.17;;;20.67;;
38717;SDS011;24468;52.128;9.278;2022-12-11T15:42:19;27.80;;;17.13;;
38717;SDS011;24468;52.128;9.278;2022-12-11T15:44:48;28.40;;;17.73;;
38717;SDS011;24468;52.128;9.278;2022-12-11T15:47:16;24.58;;;15.48;;
38717;SDS011;24468;52.128;9.278;2022-12-11T15:49:49;25.05;;;16.20;;
38717;SDS011;24468;52.128;9.278;2022-12-11T15:52:18;24.92;;;15.63;;
38717;SDS011;24468;52.128;9.278;2022-12-11T15:54:44;28.58;;;17.00;;
38717;SDS011;24468;52.128;9.278;2022-12-11T15:57:11;29.13;;;16.25;;
38717;SDS011;24468;52.128;9.278;2022-12-11T15:59:43;29.00;;;19.67;;
38717;SDS011;24468;52.128;9.278;2022-12-11T16:02:10;47.30;;;28.70;;
38717;SDS011;24468;52.128;9.278;2022-12-11T16:04:37;35.25;;;19.48;;
38717;SDS011;24468;52.128;9.278;2022-12-11T16:07:03;25.58;;;19.10;;
38717;SDS011;24468;52.128;9.278;2022-12-11T16:09:29;27.02;;;17.45;;
38717;SDS011;24468;52.128;9.278;2022-12-11T16:11:58;26.70;;;17.52;;
38717;SDS011;24468;52.128;9.278;2022-12-11T16:14:24;31.30;;;18.98;;
38717;SDS011;24468;52.128;9.278;2022-12-11T16:16:49;26.92;;;17.13;;
38717;SDS011;24468;52.128;9.278;2022-12-11T16:19:15;24.77;;;16.77;;
38717;SDS011;24468;52.128;9.278;2022-12-11T16:21:40;26.52;;;16.92;;
38717;SDS011;24468;52.128;9.278;2022-12-11T16:24:06;28.45;;;18.08;;
38717;SDS011;24468;52.128;9.278;2022-12-11T16:26:31;28.00;;;17.27;;
38717;SDS011;24468;52.128;9.278;2022-12-11T16:28:57;29.42;;;19.38;;